createdAt,value
2018-05-23T00:01:11.159Z,17.03
2018-05-23T00:03:38.687Z,18.37
2018-05-23T00:06:06.994Z,16.67
2018-05-23T00:08:34.557Z,15.17
2018-05-23T00:11:02.228Z,16.07
2018-05-23T00:13:29.765Z,17.50
2018-05-23T00:15:57.336Z,17.07
2018-05-23T00:18:24.891Z,17.97
2018-05-23T00:20:52.457Z,18.87
2018-05-23T00:23:20.103Z,20.40
2018-05-23T00:25:47.625Z,19.77
2018-05-23T00:28:15.910Z,18.70
2018-05-23T00:30:44.339Z,16.80
2018-05-23T00:33:11.871Z,17.23
2018-05-23T00:35:39.549Z,18.07
2018-05-23T00:38:07.128Z,18.23
2018-05-23T00:40:34.655Z,18.67
2018-05-23T00:43:02.191Z,21.80
2018-05-23T00:45:29.775Z,20.87
2018-05-23T00:47:57.293Z,20.90
2018-05-23T00:50:25.576Z,20.80
2018-05-23T00:52:53.896Z,22.40
2018-05-23T00:55:33.101Z,22.13
2018-05-23T00:58:00.656Z,21.30
2018-05-23T01:00:28.175Z,22.27
2018-05-23T01:02:55.705Z,21.63
2018-05-23T01:05:23.255Z,21.17
2018-05-23T01:07:50.793Z,21.00
2018-05-23T01:10:21.665Z,21.77
2018-05-23T01:12:49.211Z,21.23
2018-05-23T01:15:16.751Z,20.37
2018-05-23T01:17:44.280Z,18.77
2018-05-23T01:20:12.592Z,20.00
2018-05-23T01:22:40.103Z,18.80
2018-05-23T01:25:07.642Z,18.37
2018-05-23T01:27:35.265Z,19.47
2018-05-23T01:30:02.782Z,16.00
2018-05-23T01:32:30.295Z,17.33
2018-05-23T01:34:57.862Z,18.60
2018-05-23T01:37:25.825Z,15.23
2018-05-23T01:39:53.382Z,15.30
2018-05-23T01:42:21.031Z,14.77
2018-05-23T01:44:48.545Z,15.37
2018-05-23T01:47:16.834Z,14.63
2018-05-23T01:49:45.176Z,14.50
2018-05-23T01:52:12.811Z,16.10
2018-05-23T01:54:40.353Z,14.03
2018-05-23T01:57:07.910Z,14.17
2018-05-23T01:59:35.475Z,16.37
2018-05-23T02:02:03.006Z,17.83
2018-05-23T02:04:31.330Z,15.87
2018-05-23T02:06:58.873Z,12.77
2018-05-23T02:09:26.402Z,13.67
2018-05-23T02:11:53.973Z,12.13
2018-05-23T02:14:21.510Z,17.70
2018-05-23T02:16:49.811Z,18.50
2018-05-23T02:19:17.378Z,16.77
2018-05-23T02:21:44.937Z,17.93
2018-05-23T02:24:12.467Z,14.50
2018-05-23T02:26:40.867Z,16.90
2018-05-23T02:29:08.458Z,22.43
2018-05-23T02:31:35.974Z,15.77
2018-05-23T02:34:03.516Z,15.10
2018-05-23T02:36:31.800Z,18.70
2018-05-23T02:39:00.081Z,13.10
2018-05-23T02:41:27.637Z,14.33
2018-05-23T02:43:55.261Z,13.47
2018-05-23T02:46:22.796Z,15.90
2018-05-23T02:48:50.355Z,12.90
2018-05-23T02:51:17.885Z,13.67
2018-05-23T02:53:45.435Z,17.87
2018-05-23T02:56:12.989Z,18.10
2018-05-23T02:58:40.520Z,18.87
2018-05-23T03:01:08.037Z,16.00
2018-05-23T03:03:35.593Z,19.17
2018-05-23T03:06:03.120Z,16.80
2018-05-23T03:08:30.897Z,16.03
2018-05-23T03:10:58.439Z,20.73
2018-05-23T03:13:26.735Z,15.73
2018-05-23T03:15:54.263Z,15.50
2018-05-23T03:18:22.583Z,21.20
2018-05-23T03:20:50.105Z,18.40
2018-05-23T03:23:18.412Z,14.53
2018-05-23T03:25:45.972Z,18.47
2018-05-23T03:28:13.493Z,16.70
2018-05-23T03:30:42.245Z,17.83
2018-05-23T03:33:09.797Z,17.70
2018-05-23T03:35:37.339Z,19.90
2018-05-23T03:38:04.903Z,19.40
2018-05-23T03:40:32.450Z,19.27
2018-05-23T03:42:59.992Z,16.03
2018-05-23T03:45:27.509Z,20.37
2018-05-23T03:47:56.582Z,17.40
2018-05-23T03:50:24.231Z,14.60
2018-05-23T03:52:51.791Z,14.53
2018-05-23T03:55:19.332Z,14.97
2018-05-23T03:57:46.916Z,16.83
2018-05-23T04:00:26.335Z,14.70
2018-05-23T04:03:05.692Z,14.40
2018-05-23T04:05:45.315Z,23.83
2018-05-23T04:08:13.660Z,19.90
2018-05-23T04:10:41.972Z,25.43
2018-05-23T04:13:09.525Z,17.67
2018-05-23T04:15:37.061Z,16.63
2018-05-23T04:18:04.663Z,18.20
2018-05-23T04:20:32.221Z,16.13
2018-05-23T04:22:59.755Z,16.83
2018-05-23T04:25:27.281Z,19.57
2018-05-23T04:27:55.614Z,13.90
2018-05-23T04:30:23.167Z,20.07
2018-05-23T04:32:50.708Z,15.47
2018-05-23T04:35:18.277Z,13.07
2018-05-23T04:37:45.827Z,16.40
2018-05-23T04:40:13.358Z,17.50
2018-05-23T04:42:40.915Z,15.27
2018-05-23T04:45:09.215Z,20.93
2018-05-23T04:47:36.730Z,14.93
2018-05-23T04:50:04.278Z,24.93
2018-05-23T04:52:31.799Z,14.33
2018-05-23T04:54:59.328Z,13.93
2018-05-23T04:57:27.740Z,23.57
2018-05-23T04:59:55.560Z,15.50
2018-05-23T05:02:23.868Z,15.00
2018-05-23T05:04:51.434Z,17.50
2018-05-23T05:07:18.975Z,13.40
2018-05-23T05:09:46.511Z,14.20
2018-05-23T05:12:14.852Z,13.37
2018-05-23T05:14:43.234Z,14.47
2018-05-23T05:17:10.784Z,14.93
2018-05-23T05:19:38.320Z,17.60
2018-05-23T05:22:05.862Z,13.73
2018-05-23T05:24:33.389Z,14.37
2018-05-23T05:27:00.932Z,15.53
2018-05-23T05:29:28.453Z,15.63
2018-05-23T05:31:55.983Z,18.60
2018-05-23T05:34:24.411Z,13.90
2018-05-23T05:36:51.945Z,13.10
2018-05-23T05:39:19.474Z,16.10
2018-05-23T05:41:47.871Z,12.33
2018-05-23T05:44:15.448Z,14.37
2018-05-23T05:46:42.965Z,14.83
2018-05-23T05:49:11.285Z,12.73
2018-05-23T05:51:39.164Z,12.37
2018-05-23T05:54:06.715Z,13.73
2018-05-23T05:56:34.345Z,14.43
2018-05-23T05:59:01.861Z,12.40
2018-05-23T06:01:29.506Z,12.17
2018-05-23T06:03:57.148Z,13.63
2018-05-23T06:06:24.683Z,12.43
2018-05-23T06:08:52.205Z,14.13
2018-05-23T06:11:19.828Z,19.37
2018-05-23T06:13:47.379Z,13.30
2018-05-23T06:16:14.904Z,11.00
2018-05-23T06:18:42.505Z,13.20
2018-05-23T06:21:10.040Z,18.70
2018-05-23T06:23:37.585Z,11.23
2018-05-23T06:26:05.185Z,12.10
2018-05-23T06:28:32.745Z,13.50
2018-05-23T06:31:00.296Z,15.13
2018-05-23T06:33:27.962Z,10.00
2018-05-23T06:35:55.509Z,14.00
2018-05-23T06:38:23.081Z,10.00
2018-05-23T06:40:50.729Z,10.60
2018-05-23T06:43:18.270Z,15.80
2018-05-23T06:45:45.817Z,8.80
2018-05-23T06:48:13.408Z,19.70
2018-05-23T06:50:40.958Z,11.83
2018-05-23T06:53:08.465Z,13.70
2018-05-23T06:55:36.045Z,8.53
2018-05-23T06:58:03.599Z,17.43
2018-05-23T07:00:31.891Z,9.70
2018-05-23T07:02:59.480Z,8.80
2018-05-23T07:05:27.005Z,12.80
2018-05-23T07:07:54.595Z,11.27
2018-05-23T07:10:22.137Z,12.67
2018-05-23T07:12:49.705Z,18.93
2018-05-23T07:15:17.221Z,17.43
2018-05-23T07:17:45.563Z,11.07
2018-05-23T07:20:13.112Z,12.17
2018-05-23T07:22:40.642Z,10.40
2018-05-23T07:25:08.503Z,15.33
2018-05-23T07:27:36.017Z,17.50
2018-05-23T07:30:03.541Z,22.10
2018-05-23T07:32:31.097Z,15.27
2018-05-23T07:34:58.613Z,10.87
2018-05-23T07:37:26.933Z,12.80
2018-05-23T07:39:54.494Z,11.40
2018-05-23T07:42:22.079Z,11.00
2018-05-23T07:44:49.616Z,8.77
2018-05-23T07:47:17.175Z,10.07
2018-05-23T07:49:44.740Z,10.03
2018-05-23T07:52:12.274Z,12.20
2018-05-23T07:54:39.841Z,14.93
2018-05-23T07:57:07.353Z,10.17
2018-05-23T07:59:35.612Z,12.80
2018-05-23T08:02:03.681Z,7.97
2018-05-23T08:04:31.308Z,11.33
2018-05-23T08:06:58.834Z,9.10
2018-05-23T08:09:27.136Z,8.10
2018-05-23T08:11:54.670Z,10.40
2018-05-23T08:14:22.991Z,10.97
2018-05-23T08:16:50.546Z,11.00
2018-05-23T08:19:18.077Z,12.07
2018-05-23T08:21:45.920Z,14.30
2018-05-23T08:24:14.258Z,11.60
2018-05-23T08:26:42.096Z,9.80
2018-05-23T08:29:09.654Z,13.40
2018-05-23T08:31:37.228Z,9.80
2018-05-23T08:34:04.786Z,14.90
2018-05-23T08:36:32.449Z,15.83
2018-05-23T08:38:59.941Z,15.10
2018-05-23T08:41:27.462Z,10.00
2018-05-23T08:43:54.996Z,14.53
2018-05-23T08:46:22.547Z,9.63
2018-05-23T08:48:50.121Z,14.93
2018-05-23T08:51:17.700Z,16.73
2018-05-23T08:53:45.259Z,12.07
2018-05-23T08:56:12.833Z,13.73
2018-05-23T08:58:40.462Z,15.23
2018-05-23T09:01:08.039Z,13.57
2018-05-23T09:03:35.572Z,14.33
2018-05-23T09:06:03.142Z,13.60
2018-05-23T09:08:31.684Z,11.93
2018-05-23T09:10:59.984Z,10.23
2018-05-23T09:13:27.571Z,14.30
2018-05-23T09:15:55.123Z,21.47
2018-05-23T09:18:22.633Z,18.70
2018-05-23T09:20:50.945Z,15.40
2018-05-23T09:23:18.522Z,17.73
2018-05-23T09:25:46.053Z,15.77
2018-05-23T09:28:13.629Z,10.13
2018-05-23T09:30:41.192Z,10.97
2018-05-23T09:33:08.765Z,24.43
2018-05-23T09:35:36.321Z,14.83
2018-05-23T09:38:03.880Z,13.63
2018-05-23T09:40:31.430Z,7.57
2018-05-23T09:42:58.951Z,10.07
2018-05-23T09:45:27.282Z,13.10
2018-05-23T09:47:54.823Z,9.17
2018-05-23T09:50:22.959Z,15.20
2018-05-23T09:52:51.369Z,8.30
2018-05-23T09:55:18.938Z,12.87
2018-05-23T09:57:46.464Z,6.90
2018-05-23T10:00:14.027Z,9.63
2018-05-23T10:02:41.559Z,12.07
2018-05-23T10:05:09.882Z,8.67
2018-05-23T10:07:37.475Z,11.60
2018-05-23T10:10:04.991Z,9.53
2018-05-23T10:12:32.521Z,8.23
2018-05-23T10:15:00.844Z,9.53
2018-05-23T10:17:28.400Z,7.20
2018-05-23T10:19:55.914Z,16.30
2018-05-23T10:22:25.039Z,7.10
2018-05-23T10:24:52.572Z,10.07
2018-05-23T10:27:20.104Z,11.27
2018-05-23T10:29:47.656Z,9.53
2018-05-23T10:32:15.187Z,8.80
2018-05-23T10:34:42.742Z,6.27
2018-05-23T10:37:10.407Z,5.70
2018-05-23T10:39:37.943Z,8.50
2018-05-23T10:42:05.508Z,7.90
2018-05-23T10:44:33.067Z,11.87
2018-05-23T10:47:00.586Z,13.43
2018-05-23T10:49:28.883Z,6.90
2018-05-23T10:51:56.627Z,10.33
2018-05-23T10:54:25.021Z,11.73
2018-05-23T10:56:53.448Z,12.93
2018-05-23T10:59:21.020Z,7.60
2018-05-23T11:01:48.657Z,11.60
2018-05-23T11:04:16.172Z,6.40
2018-05-23T11:06:44.595Z,13.40
2018-05-23T11:09:12.151Z,9.17
2018-05-23T11:11:39.698Z,8.20
2018-05-23T11:14:07.240Z,7.03
2018-05-23T11:16:34.763Z,10.37
2018-05-23T11:19:02.282Z,10.60
2018-05-23T11:21:29.848Z,6.87
2018-05-23T11:23:57.387Z,13.40
2018-05-23T11:26:24.925Z,11.50
2018-05-23T11:28:52.528Z,7.20
2018-05-23T11:31:20.066Z,8.57
2018-05-23T11:33:47.643Z,7.67
2018-05-23T11:36:15.224Z,9.03
2018-05-23T11:38:42.732Z,6.10
2018-05-23T11:41:10.308Z,12.60
2018-05-23T11:43:37.888Z,10.43
2018-05-23T11:46:05.422Z,8.87
2018-05-23T11:48:33.002Z,6.53
2018-05-23T11:51:00.664Z,7.17
2018-05-23T11:53:28.211Z,11.30
2018-05-23T11:55:55.750Z,13.30
2018-05-23T11:58:23.332Z,15.53
2018-05-23T12:00:50.871Z,7.47
2018-05-23T12:03:18.437Z,11.67
2018-05-23T12:05:45.993Z,11.47
2018-05-23T12:08:13.532Z,6.83
2018-05-23T12:10:41.159Z,13.53
2018-05-23T12:13:08.678Z,7.47
2018-05-23T12:15:36.198Z,5.77
2018-05-23T12:18:04.497Z,10.77
2018-05-23T12:20:32.070Z,10.37
2018-05-23T12:22:59.699Z,7.70
2018-05-23T12:25:27.178Z,4.87
2018-05-23T12:27:54.739Z,5.53
2018-05-23T12:30:22.300Z,7.77
2018-05-23T12:32:49.957Z,12.53
2018-05-23T12:35:17.518Z,7.07
2018-05-23T12:37:45.065Z,8.30
2018-05-23T12:40:12.593Z,6.50
2018-05-23T12:42:40.910Z,9.50
2018-05-23T12:45:08.452Z,8.43
2018-05-23T12:47:35.962Z,7.73
2018-05-23T12:50:05.028Z,5.53
2018-05-23T12:52:32.540Z,8.70
2018-05-23T12:55:00.821Z,5.47
2018-05-23T12:57:29.163Z,13.30
2018-05-23T12:59:56.694Z,6.47
2018-05-23T13:02:24.214Z,10.93
2018-05-23T13:04:52.530Z,9.33
2018-05-23T13:07:20.090Z,7.23
2018-05-23T13:09:47.625Z,6.17
2018-05-23T13:12:15.199Z,5.93
2018-05-23T13:14:42.757Z,6.63
2018-05-23T13:17:10.269Z,6.57
2018-05-23T13:19:39.712Z,4.17
2018-05-23T13:22:07.252Z,12.53
2018-05-23T13:24:34.835Z,6.00
2018-05-23T13:27:02.532Z,6.30
2018-05-23T13:29:30.160Z,4.43
2018-05-23T13:31:58.551Z,9.00
2018-05-23T13:34:26.215Z,6.00
2018-05-23T13:36:53.757Z,8.53
2018-05-23T13:39:21.286Z,12.50
2018-05-23T13:41:49.590Z,6.93
2018-05-23T13:44:17.264Z,5.83
2018-05-23T13:46:44.844Z,10.20
2018-05-23T13:49:12.393Z,7.33
2018-05-23T13:51:39.925Z,6.40
2018-05-23T13:54:07.459Z,10.23
2018-05-23T13:56:35.147Z,10.50
2018-05-23T13:59:02.679Z,6.73
2018-05-23T14:01:30.266Z,3.97
2018-05-23T14:03:57.818Z,5.97
2018-05-23T14:06:25.393Z,6.10
2018-05-23T14:08:52.937Z,5.40
2018-05-23T14:11:20.497Z,4.43
2018-05-23T14:13:48.024Z,5.40
2018-05-23T14:16:16.337Z,5.57
2018-05-23T14:18:43.899Z,5.70
2018-05-23T14:21:11.459Z,8.63
2018-05-23T14:23:39.007Z,8.33
2018-05-23T14:26:06.636Z,7.87
2018-05-23T14:28:34.948Z,5.07
2018-05-23T14:31:02.484Z,9.80
2018-05-23T14:33:30.061Z,5.30
2018-05-23T14:35:57.591Z,4.93
2018-05-23T14:38:25.186Z,3.83
2018-05-23T14:40:52.843Z,3.67
2018-05-23T14:43:20.419Z,3.33
2018-05-23T14:45:47.912Z,3.73
2018-05-23T14:48:15.481Z,7.53
2018-05-23T14:50:43.795Z,9.40
2018-05-23T14:53:12.122Z,4.77
2018-05-23T14:55:39.667Z,4.00
2018-05-23T14:58:07.192Z,7.37
2018-05-23T15:00:34.752Z,4.73
2018-05-23T15:03:02.684Z,4.43
2018-05-23T15:05:30.227Z,10.83
2018-05-23T15:07:58.513Z,6.30
2018-05-23T15:10:26.824Z,4.60
2018-05-23T15:12:54.342Z,21.87
2018-05-23T15:15:22.672Z,6.00
2018-05-23T15:17:50.222Z,6.70
2018-05-23T15:20:17.876Z,7.80
2018-05-23T15:22:45.393Z,7.97
2018-05-23T15:25:12.982Z,12.53
2018-05-23T15:27:40.518Z,4.17
2018-05-23T15:30:08.846Z,4.33
2018-05-23T15:32:36.420Z,4.50
2018-05-23T15:35:04.021Z,7.63
2018-05-23T15:37:31.624Z,6.37
2018-05-23T15:39:59.180Z,3.83
2018-05-23T15:42:26.735Z,12.47
2018-05-23T15:44:54.301Z,7.30
2018-05-23T15:47:21.842Z,3.50
2018-05-23T15:49:49.404Z,3.90
2018-05-23T15:52:16.924Z,4.33
2018-05-23T15:54:45.353Z,7.00
2018-05-23T15:57:12.934Z,7.47
2018-05-23T15:59:40.560Z,5.10
2018-05-23T16:02:08.076Z,4.80
2018-05-23T16:04:36.535Z,4.60
2018-05-23T16:07:04.160Z,4.67
2018-05-23T16:09:31.693Z,3.60
2018-05-23T16:11:59.270Z,6.70
2018-05-23T16:14:26.792Z,6.53
2018-05-23T16:16:55.081Z,6.83
2018-05-23T16:19:23.493Z,9.20
2018-05-23T16:21:51.053Z,5.20
2018-05-23T16:24:18.594Z,8.10
2018-05-23T16:26:46.181Z,5.17
2018-05-23T16:29:13.697Z,4.70
2018-05-23T16:31:41.232Z,3.40
2018-05-23T16:34:09.551Z,3.30
2018-05-23T16:36:37.068Z,8.47
2018-05-23T16:39:05.381Z,14.13
2018-05-23T16:41:32.938Z,5.07
2018-05-23T16:44:00.501Z,3.33
2018-05-23T16:46:28.266Z,3.20
2018-05-23T16:48:55.837Z,4.80
2018-05-23T16:51:23.358Z,5.53
2018-05-23T16:53:51.652Z,3.77
2018-05-23T16:56:19.212Z,3.37
2018-05-23T16:58:46.743Z,5.73
2018-05-23T17:01:15.946Z,9.50
2018-05-23T17:03:44.304Z,4.90
2018-05-23T17:06:11.838Z,4.40
2018-05-23T17:08:39.396Z,6.10
2018-05-23T17:11:07.352Z,3.90
2018-05-23T17:13:34.873Z,13.63
2018-05-23T17:16:03.153Z,3.77
2018-05-23T17:18:30.728Z,4.13
2018-05-23T17:20:58.307Z,9.37
2018-05-23T17:23:25.848Z,21.63
2018-05-23T17:25:53.511Z,4.50
2018-05-23T17:28:21.048Z,3.30
2018-05-23T17:30:49.423Z,3.60
2018-05-23T17:33:17.003Z,8.30
2018-05-23T17:35:44.541Z,7.73
2018-05-23T17:38:12.851Z,3.40
2018-05-23T17:40:40.706Z,6.17
2018-05-23T17:43:08.248Z,5.40
2018-05-23T17:45:35.789Z,3.07
2018-05-23T17:48:04.114Z,4.73
2018-05-23T17:50:31.729Z,13.37
2018-05-23T17:53:00.025Z,7.20
2018-05-23T17:55:27.595Z,4.27
2018-05-23T17:57:55.256Z,5.17
2018-05-23T18:00:22.791Z,8.43
2018-05-23T18:02:51.143Z,6.10
2018-05-23T18:05:21.275Z,14.03
2018-05-23T18:07:48.856Z,6.20
2018-05-23T18:10:16.431Z,3.80
2018-05-23T18:12:43.956Z,3.17
2018-05-23T18:15:12.263Z,4.97
2018-05-23T18:17:39.843Z,6.20
2018-05-23T18:20:07.702Z,5.90
2018-05-23T18:22:35.252Z,6.40
2018-05-23T18:25:05.332Z,6.23
2018-05-23T18:27:33.072Z,6.57
2018-05-23T18:30:00.594Z,3.67
2018-05-23T18:32:28.143Z,10.90
2018-05-23T18:34:55.662Z,6.70
2018-05-23T18:37:23.977Z,4.50
2018-05-23T18:39:51.547Z,7.87
2018-05-23T18:42:19.059Z,4.13
2018-05-23T18:44:46.670Z,11.60
2018-05-23T18:47:14.245Z,5.37
2018-05-23T18:49:41.889Z,3.50
2018-05-23T18:52:09.453Z,5.90
2018-05-23T18:54:37.026Z,11.00
2018-05-23T18:57:04.643Z,7.80
2018-05-23T18:59:32.895Z,4.07
2018-05-23T19:02:01.321Z,8.20
2018-05-23T19:04:28.773Z,6.63
2018-05-23T19:06:56.291Z,4.20
2018-05-23T19:09:24.597Z,4.43
2018-05-23T19:11:52.119Z,8.60
2018-05-23T19:14:20.406Z,8.27
2018-05-23T19:16:48.709Z,8.00
2018-05-23T19:19:16.235Z,3.27
2018-05-23T19:21:44.535Z,5.17
2018-05-23T19:24:12.135Z,9.20
2018-05-23T19:26:39.686Z,5.67
2018-05-23T19:29:07.255Z,4.97
2018-05-23T19:31:34.887Z,7.50
2018-05-23T19:34:02.440Z,4.30
2018-05-23T19:36:29.996Z,5.70
2018-05-23T19:38:57.594Z,5.17
2018-05-23T19:41:25.967Z,7.97
2018-05-23T19:43:53.537Z,8.17
2018-05-23T19:46:22.117Z,9.10
2018-05-23T19:48:49.702Z,7.20
2018-05-23T19:51:18.235Z,4.13
2018-05-23T19:53:45.906Z,4.43
2018-05-23T19:56:13.804Z,6.13
2018-05-23T19:58:42.200Z,4.00
2018-05-23T20:01:10.533Z,7.43
2018-05-23T20:03:38.100Z,7.77
2018-05-23T20:06:05.638Z,6.50
2018-05-23T20:08:33.206Z,4.27
2018-05-23T20:11:00.729Z,4.70
2018-05-23T20:13:28.310Z,6.40
2018-05-23T20:15:55.980Z,4.47
2018-05-23T20:18:23.512Z,4.70
2018-05-23T20:20:51.060Z,4.50
2018-05-23T20:23:18.634Z,4.37
2018-05-23T20:25:46.173Z,4.73
2018-05-23T20:28:13.698Z,8.33
2018-05-23T20:30:41.256Z,5.90
2018-05-23T20:33:09.179Z,3.57
2018-05-23T20:35:36.698Z,3.37
2018-05-23T20:38:05.148Z,10.20
2018-05-23T20:40:32.687Z,3.70
2018-05-23T20:43:00.238Z,4.33
2018-05-23T20:45:27.791Z,3.20
2018-05-23T20:47:55.353Z,4.03
2018-05-23T20:50:22.917Z,5.57
2018-05-23T20:52:50.482Z,7.20
2018-05-23T20:55:18.050Z,4.57
2018-05-23T20:57:45.583Z,5.90
2018-05-23T21:00:13.128Z,3.37
2018-05-23T21:02:40.725Z,4.47
2018-05-23T21:05:08.316Z,3.10
2018-05-23T21:07:35.927Z,3.07
2018-05-23T21:10:03.497Z,4.00
2018-05-23T21:12:31.013Z,2.90
2018-05-23T21:14:59.427Z,3.13
2018-05-23T21:17:26.954Z,7.93
2018-05-23T21:19:54.531Z,4.13
2018-05-23T21:22:22.069Z,2.87
2018-05-23T21:24:50.379Z,4.53
2018-05-23T21:27:17.903Z,4.20
2018-05-23T21:29:46.314Z,3.93
2018-05-23T21:32:15.420Z,5.60
2018-05-23T21:34:42.962Z,6.63
2018-05-23T21:37:10.533Z,8.80
2018-05-23T21:39:38.060Z,3.30
2018-05-23T21:42:05.595Z,3.13
2018-05-23T21:44:33.917Z,8.97
2018-05-23T21:47:01.438Z,5.23
2018-05-23T21:49:29.761Z,3.07
2018-05-23T21:51:57.326Z,5.23
2018-05-23T21:54:24.881Z,3.37
2018-05-23T21:56:52.440Z,7.63
2018-05-23T21:59:19.993Z,5.53
2018-05-23T22:01:47.517Z,5.63
2018-05-23T22:04:15.044Z,3.17
2018-05-23T22:06:42.610Z,6.53
2018-05-23T22:09:10.140Z,9.20
2018-05-23T22:11:37.819Z,11.90
2018-05-23T22:14:05.434Z,3.83
2018-05-23T22:16:32.992Z,3.53
2018-05-23T22:19:00.550Z,5.00
2018-05-23T22:21:28.097Z,3.23
2018-05-23T22:23:55.638Z,8.03
2018-05-23T22:26:23.914Z,4.23
2018-05-23T22:28:52.246Z,6.03
2018-05-23T22:31:19.777Z,6.63
2018-05-23T22:33:47.302Z,6.43
2018-05-23T22:36:15.724Z,3.83
2018-05-23T22:38:43.491Z,5.60
2018-05-23T22:41:10.997Z,7.23
2018-05-23T22:43:39.443Z,3.27
2018-05-23T22:46:06.981Z,4.37
2018-05-23T22:48:34.500Z,7.00
2018-05-23T22:51:02.838Z,5.07
2018-05-23T22:53:30.371Z,17.73
2018-05-23T22:55:58.028Z,10.20
2018-05-23T22:58:25.585Z,6.03
2018-05-23T23:00:53.103Z,7.03
2018-05-23T23:03:20.614Z,5.87
2018-05-23T23:05:48.274Z,7.97
2018-05-23T23:08:15.781Z,5.20
2018-05-23T23:10:43.393Z,4.03
2018-05-23T23:13:10.947Z,5.60
2018-05-23T23:15:38.475Z,6.93
2018-05-23T23:18:05.993Z,13.13
2018-05-23T23:20:33.538Z,12.80
2018-05-23T23:23:01.050Z,5.57
2018-05-23T23:25:29.321Z,6.83
2018-05-23T23:27:57.647Z,5.23
2018-05-23T23:30:25.593Z,11.67
2018-05-23T23:32:53.117Z,4.97
2018-05-23T23:35:21.940Z,6.40
2018-05-23T23:37:49.511Z,3.40
2018-05-23T23:40:17.022Z,4.13
2018-05-23T23:42:45.432Z,3.80
2018-05-23T23:45:12.960Z,8.43
2018-05-23T23:47:41.257Z,4.20
2018-05-23T23:50:08.804Z,5.40
2018-05-23T23:52:36.321Z,4.40
2018-05-23T23:55:03.842Z,6.00
2018-05-23T23:57:31.415Z,3.90
2018-05-23T23:59:58.957Z,7.40
